Dalaman International Airport Dalaman TR
ICAO: LTBS
IATA: DLM
Category: Large
Scheduled Services: Yes

Elevation: 20 ft
TransAlt. 12000 ft.

Airport Communications:
APP:119.225
ATIS:127.35
GND:121.9
TWR:118.5

LTBS Zoom In..

If you have problems with the map follow the link
https://www.worldairports.se/pages/airport.php?
ICAO=LTBS

Runways:

(A) RW 01 length 9843 ft width 148 ft
ILS 110.10 / hdg 12

(B) RW 19 length 9843 ft width 148 ft
---- / hdg 192

Location; LTBS
Day. 18 / Time. 05.20 Zulu
* QNH: 1009
* Temperature: 24° c. 75.2°f.
* Wind from: 060° Speed 03 kn.
Dewpoint: 20° c.
Visibility: 10 km or more.
Clouds: Few 3000 ft.
Clouds: Scattered 1000 ft.
No significant changes expected in the near future.

LTBS 180520Z 06003KT 9999 FEW030 SCT100 24/20 Q1009 NOSIG


Wind From 060°
Speed 03 kn.

 
 
jpsmedia.com for Web Design worldairports.se 2019   terms of use